Mc Clelland, Iowa
Current Conditions -  °F | °C
As of 6:35 PM on Monday 24 Nov 2014 (Local Time) from KCBF Reporting Station
Clear Clear  
Wind Chill: 20°   Ceiling: Unl
Heat Index: 30°   Visibility: 10mi
Dew Point: 12°   Wind: 14mph
Humidity: 47%   Direction: 310°NW
Pressure: 29.93"   Gusts: 26mph
Location:  41.3329°N, 95.6819°W
Report Text: KCBF 250035Z AUTO 31012G23KT 10SM CLR M01/M11 A2993 RMK AO2
Loading
Personal Weather Stations






























Interactive Weather Map New forecast layout! Learn more

10-Day Weather Forecast

Advertisements
Track Severe Weather on mobile